Time;durP1;ratioP1;P1;durP2;ratioP2;P2;SDS_P1;SDS_P2;PMS_P1;PMS_P2;Temp;Humidity;BMP_temperature;BMP_pressure;BME280_temperature;BME280_humidity;BME280_pressure;Samples;Min_cycle;Max_cycle;Signal;HPM_P1;HPM_P2
2022/09/28 00:00:28;;;;;;;0.00;0.00;;;13.70;99.90;;;;;;4902768;29;20036;-82
2022/09/28 00:02:57;;;;;;;0.00;0.00;;;13.60;99.90;;;;;;4902502;29;20416;-82
2022/09/28 00:05:25;;;;;;;0.00;0.00;;;13.60;99.90;;;;;;4919462;29;20119;-82
2022/09/28 00:07:55;;;;;;;0.00;0.00;;;13.60;99.90;;;;;;4902199;29;20039;-82
2022/09/28 00:10:21;;;;;;;0.00;0.00;;;13.60;99.90;;;;;;4919813;29;20038;-80
2022/09/28 00:12:48;;;;;;;0.00;0.00;;;13.60;99.90;;;;;;4919913;29;20095;-80
2022/09/28 00:15:15;;;;;;;0.00;0.00;;;13.60;99.90;;;;;;4918979;29;20028;-82
2022/09/28 00:17:43;;;;;;;0.10;0.10;;;13.60;99.90;;;;;;4918890;29;20071;-83
2022/09/28 00:20:10;;;;;;;1.75;1.65;;;13.60;99.90;;;;;;4919338;29;20059;-81
2022/09/28 00:22:36;;;;;;;0.00;0.00;;;13.60;99.90;;;;;;4902205;29;20455;-81
2022/09/28 00:25:02;;;;;;;0.00;0.00;;;13.60;99.90;;;;;;4917513;29;20056;-81
2022/09/28 00:27:28;;;;;;;0.00;0.00;;;13.60;99.90;;;;;;4902315;29;20036;-83
2022/09/28 00:29:54;;;;;;;0.00;0.00;;;13.60;99.90;;;;;;4919776;29;20028;-82
2022/09/28 00:32:23;;;;;;;0.00;0.00;;;13.60;99.90;;;;;;4903050;29;20032;-80
2022/09/28 00:34:50;;;;;;;0.15;0.15;;;13.60;99.90;;;;;;4919724;29;20024;-81
2022/09/28 00:37:17;;;;;;;0.10;0.10;;;13.50;99.90;;;;;;4919987;29;20036;-82
2022/09/28 00:39:44;;;;;;;0.00;0.00;;;13.50;99.90;;;;;;4919905;29;20032;-83
2022/09/28 00:42:20;;;;;;;0.30;0.30;;;13.50;99.90;;;;;;4919499;29;20032;-81
2022/09/28 00:44:46;;;;;;;0.10;0.10;;;13.60;99.90;;;;;;4918807;29;20028;-81
2022/09/28 00:47:37;;;;;;;0.00;0.00;;;13.50;99.90;;;;;;4901751;29;20032;-81
2022/09/28 00:50:15;;;;;;;0.00;0.00;;;13.50;99.90;;;;;;4913282;29;20038;-80
2022/09/28 00:52:55;;;;;;;0.00;0.00;;;13.60;99.90;;;;;;4913346;29;20043;-83
2022/09/28 00:55:52;;;;;;;0.00;0.00;;;13.60;99.90;;;;;;4901960;29;20159;-83
2022/09/28 00:58:30;;;;;;;0.00;0.00;;;13.60;99.90;;;;;;4916666;29;20499;-83
2022/09/28 01:00:57;;;;;;;0.00;0.00;;;13.60;99.90;;;;;;4918807;29;20028;-83
2022/09/28 01:03:25;;;;;;;0.00;0.00;;;13.60;99.90;;;;;;4901544;29;20036;-82
2022/09/28 01:05:52;;;;;;;0.00;0.00;;;13.60;99.90;;;;;;4902120;29;20060;-82
2022/09/28 01:08:20;;;;;;;0.00;0.00;;;13.60;99.90;;;;;;4918169;29;20040;-81
2022/09/28 01:10:47;;;;;;;0.00;0.00;;;13.60;99.90;;;;;;4901475;29;20028;-81
2022/09/28 01:13:15;;;;;;;0.00;0.00;;;13.60;99.90;;;;;;4918555;29;20036;-83
2022/09/28 01:16:11;;;;;;;0.00;0.00;;;13.60;99.90;;;;;;4917453;29;20068;-82
2022/09/28 01:19:11;;;;;;;0.00;0.00;;;13.60;99.90;;;;;;4913909;29;20411;-81
2022/09/28 01:22:03;;;;;;;0.00;0.00;;;13.60;99.90;;;;;;4918480;29;20020;-81
2022/09/28 01:25:05;;;;;;;0.00;0.00;;;13.60;99.90;;;;;;4909659;29;20048;-83
2022/09/28 01:27:33;;;;;;;0.03;0.03;;;13.70;99.90;;;;;;4841354;29;20133;-83
2022/09/28 01:30:06;;;;;;;0.00;0.00;;;13.60;99.90;;;;;;4842177;29;20552;-82
2022/09/28 01:32:57;;;;;;;0.00;0.00;;;13.60;99.90;;;;;;4826649;29;20037;-81
2022/09/28 01:35:35;;;;;;;0.00;0.00;;;13.60;99.90;;;;;;4808534;29;20041;-83
2022/09/28 01:38:25;;;;;;;0.00;0.00;;;13.60;99.90;;;;;;4823587;29;20039;-80
2022/09/28 01:40:52;;;;;;;0.00;0.00;;;13.60;99.90;;;;;;4821216;29;20402;-81
2022/09/28 01:43:27;;;;;;;0.00;0.00;;;13.60;99.90;;;;;;4841216;29;20124;-82
2022/09/28 01:45:57;;;;;;;0.00;0.00;;;13.60;99.90;;;;;;4825408;29;20540;-82
2022/09/28 01:48:36;;;;;;;0.00;0.00;;;13.60;99.90;;;;;;4825938;29;20030;-82
2022/09/28 01:51:08;;;;;;;0.00;0.00;;;13.50;99.90;;;;;;4841461;29;20070;-83
2022/09/28 01:53:39;;;;;;;0.00;0.00;;;13.50;99.90;;;;;;4841113;29;20038;-81
2022/09/28 01:56:18;;;;;;;0.00;0.00;;;13.50;99.90;;;;;;4840827;29;20046;-83
2022/09/28 01:59:19;;;;;;;0.00;0.00;;;13.50;99.90;;;;;;4840649;29;20049;-81
2022/09/28 02:02:13;;;;;;;0.00;0.00;;;13.50;99.90;;;;;;4841114;29;20109;-81
2022/09/28 02:04:50;;;;;;;0.50;0.50;;;13.50;99.90;;;;;;4898026;29;20047;-80
2022/09/28 02:07:25;;;;;;;0.00;0.00;;;13.40;99.90;;;;;;4895962;29;20060;-84
2022/09/28 02:09:56;;;;;;;0.00;0.00;;;13.40;99.90;;;;;;4900393;29;20036;-84
2022/09/28 02:12:45;;;;;;;0.35;0.35;;;13.40;99.90;;;;;;4917377;29;20373;-82
2022/09/28 02:15:19;;;;;;;1.00;1.00;;;13.40;99.90;;;;;;4917406;29;20032;-82
2022/09/28 02:17:45;;;;;;;0.28;0.28;;;13.40;99.90;;;;;;4900087;29;20044;-83
2022/09/28 02:20:11;;;;;;;0.00;0.00;;;13.30;99.90;;;;;;4900232;29;20028;-82
2022/09/28 02:22:46;;;;;;;0.00;0.00;;;13.30;99.90;;;;;;4917576;29;20028;-81
2022/09/28 02:25:28;;;;;;;0.00;0.00;;;13.30;99.90;;;;;;4917232;29;20107;-82
2022/09/28 02:27:59;;;;;;;0.00;0.00;;;13.30;99.90;;;;;;4916737;29;20074;-80
2022/09/28 02:30:26;;;;;;;0.00;0.00;;;13.40;99.90;;;;;;4899990;29;20036;-80
2022/09/28 02:32:55;;;;;;;0.00;0.00;;;13.30;99.90;;;;;;4900045;29;20107;-81
2022/09/28 02:35:22;;;;;;;0.00;0.00;;;13.30;99.90;;;;;;4899931;29;20032;-81
2022/09/28 02:37:49;;;;;;;0.00;0.00;;;13.30;99.90;;;;;;4917076;29;20028;-81
2022/09/28 02:40:32;;;;;;;0.00;0.00;;;13.30;99.90;;;;;;4917532;29;20138;-82
2022/09/28 02:43:25;;;;;;;0.00;0.00;;;13.40;99.90;;;;;;4912039;29;20032;-82
2022/09/28 02:46:24;;;;;;;0.00;0.00;;;13.40;99.90;;;;;;4913992;29;20039;-84
2022/09/28 02:49:22;;;;;;;0.00;0.00;;;13.40;99.90;;;;;;4916862;29;20028;-82
2022/09/28 02:52:18;;;;;;;0.05;0.05;;;13.30;99.90;;;;;;4898359;29;20046;-81
2022/09/28 02:54:53;;;;;;;0.00;0.00;;;13.40;99.90;;;;;;4911683;29;20043;-82
2022/09/28 02:57:44;;;;;;;0.00;0.00;;;13.40;99.90;;;;;;4917202;29;20123;-82
2022/09/28 03:00:21;;;;;;;0.00;0.00;;;13.40;99.90;;;;;;4890715;29;20484;-82
2022/09/28 03:03:08;;;;;;;0.00;0.00;;;13.40;99.90;;;;;;4916765;29;20111;-81
2022/09/28 03:05:59;;;;;;;0.00;0.00;;;13.40;99.90;;;;;;4898593;29;20128;-80
2022/09/28 03:08:43;;;;;;;0.10;0.10;;;13.40;99.90;;;;;;4920860;29;20471;-83
2022/09/28 03:11:19;;;;;;;0.00;0.00;;;13.40;99.90;;;;;;4916547;29;20024;-81
2022/09/28 03:13:45;;;;;;;0.10;0.10;;;13.40;99.90;;;;;;4906887;29;20032;-82
2022/09/28 03:16:16;;;;;;;0.10;0.10;;;13.40;99.90;;;;;;4923189;29;20028;-81
2022/09/28 03:18:43;;;;;;;0.00;0.00;;;13.40;99.90;;;;;;4905903;29;20047;-81
2022/09/28 03:21:11;;;;;;;0.00;0.00;;;13.40;99.90;;;;;;4905420;29;20036;-81
2022/09/28 03:23:37;;;;;;;0.00;0.00;;;13.50;99.90;;;;;;4922645;29;20028;-83
2022/09/28 03:26:03;;;;;;;0.00;0.00;;;13.50;99.90;;;;;;4906042;29;20032;-81
2022/09/28 03:28:29;;;;;;;0.00;0.00;;;13.50;99.90;;;;;;4906038;29;20480;-82
2022/09/28 03:30:55;;;;;;;0.00;0.00;;;13.50;99.90;;;;;;4905762;29;20036;-83
2022/09/28 03:33:22;;;;;;;0.00;0.00;;;13.50;99.90;;;;;;4923144;29;20043;-82
2022/09/28 03:35:49;;;;;;;0.00;0.00;;;13.50;99.90;;;;;;4922860;29;20479;-82
2022/09/28 03:38:18;;;;;;;0.00;0.00;;;13.50;99.90;;;;;;4916673;29;20032;-82
2022/09/28 03:40:53;;;;;;;0.00;0.00;;;13.50;99.90;;;;;;4922856;29;20064;-81
2022/09/28 03:43:20;;;;;;;0.00;0.00;;;13.50;99.90;;;;;;4917943;29;20032;-80
2022/09/28 03:45:53;;;;;;;0.00;0.00;;;13.50;99.90;;;;;;4922470;29;20036;-82
2022/09/28 03:48:27;;;;;;;0.00;0.00;;;13.40;99.90;;;;;;4900026;29;20579;-83
2022/09/28 03:50:58;;;;;;;0.10;0.10;;;13.40;99.90;;;;;;4921896;29;20476;-81
2022/09/28 03:53:25;;;;;;;0.00;0.00;;;13.40;99.90;;;;;;4923345;29;20107;-82
2022/09/28 03:55:54;;;;;;;0.10;0.10;;;13.40;99.90;;;;;;4922753;29;20141;-78
2022/09/28 03:58:21;;;;;;;0.00;0.00;;;13.50;99.90;;;;;;4922413;29;20395;-79
2022/09/28 04:00:48;;;;;;;0.00;0.00;;;13.40;99.90;;;;;;4923156;29;20028;-80
2022/09/28 04:03:13;;;;;;;0.00;0.00;;;13.40;99.90;;;;;;4922654;29;20032;-81
2022/09/28 04:05:51;;;;;;;0.00;0.00;;;13.40;99.90;;;;;;4923050;29;20039;-78
2022/09/28 04:08:17;;;;;;;0.00;0.00;;;13.40;99.90;;;;;;4923592;29;20031;-80
2022/09/28 04:10:43;;;;;;;0.00;0.00;;;13.40;99.90;;;;;;4923465;29;20446;-79
2022/09/28 04:13:09;;;;;;;0.00;0.00;;;13.40;99.90;;;;;;4923165;29;20067;-79
2022/09/28 04:15:36;;;;;;;0.00;0.00;;;13.30;99.90;;;;;;4906099;29;20040;-79
2022/09/28 04:18:03;;;;;;;0.00;0.00;;;13.30;99.90;;;;;;4923209;29;20051;-80
2022/09/28 04:20:28;;;;;;;0.00;0.00;;;13.30;99.90;;;;;;4919099;29;20036;-78
2022/09/28 04:22:56;;;;;;;0.00;0.00;;;13.30;99.90;;;;;;4919723;29;20036;-81
2022/09/28 04:25:22;;;;;;;0.00;0.00;;;13.30;99.90;;;;;;4919853;29;20130;-79
2022/09/28 04:30:33;;;;;;;0.00;0.00;;;13.40;99.90;;;;;;4919953;29;20035;-80
2022/09/28 04:32:59;;;;;;;0.00;0.00;;;13.30;99.90;;;;;;4920185;29;20024;-79
2022/09/28 04:35:25;;;;;;;0.00;0.00;;;13.30;99.90;;;;;;4920080;29;20080;-80
2022/09/28 04:37:51;;;;;;;0.00;0.00;;;13.30;99.90;;;;;;4919457;29;20365;-78
2022/09/28 04:40:16;;;;;;;0.00;0.00;;;13.30;99.90;;;;;;4919719;29;20033;-80
2022/09/28 04:42:42;;;;;;;0.00;0.00;;;13.40;99.90;;;;;;4919691;29;20039;-81
2022/09/28 04:45:09;;;;;;;0.00;0.00;;;13.40;99.90;;;;;;4919594;29;20024;-80
2022/09/28 04:47:34;;;;;;;0.00;0.00;;;13.40;99.90;;;;;;4902635;29;20038;-80
2022/09/28 04:50:00;;;;;;;0.00;0.00;;;13.40;99.90;;;;;;4919880;29;20024;-79
2022/09/28 04:52:26;;;;;;;0.00;0.00;;;13.50;99.90;;;;;;4920021;29;20109;-79
2022/09/28 04:54:52;;;;;;;0.00;0.00;;;13.50;99.90;;;;;;4919591;29;20122;-82
2022/09/28 04:57:17;;;;;;;0.00;0.00;;;13.50;99.90;;;;;;4902609;29;20036;-79
2022/09/28 04:59:43;;;;;;;0.00;0.00;;;13.50;99.90;;;;;;4902943;29;20024;-79
2022/09/28 05:02:09;;;;;;;0.00;0.00;;;13.50;99.90;;;;;;4902415;29;20452;-79
2022/09/28 05:04:35;;;;;;;0.00;0.00;;;13.50;99.90;;;;;;4902485;29;20084;-79
2022/09/28 05:07:01;;;;;;;0.00;0.00;;;13.50;99.90;;;;;;4919267;29;20040;-81
2022/09/28 05:09:26;;;;;;;0.00;0.00;;;13.50;99.90;;;;;;4919332;29;20361;-80
2022/09/28 05:11:52;;;;;;;0.00;0.00;;;13.60;99.90;;;;;;4919326;29;20051;-81
2022/09/28 05:14:20;;;;;;;0.00;0.00;;;13.50;99.90;;;;;;4919137;29;20032;-80
2022/09/28 05:16:47;;;;;;;0.00;0.00;;;13.40;99.90;;;;;;4918843;29;20068;-81
2022/09/28 05:19:13;;;;;;;0.00;0.00;;;13.40;99.90;;;;;;4919280;29;20028;-80
2022/09/28 05:21:41;;;;;;;0.00;0.00;;;13.50;99.90;;;;;;4919007;29;20395;-79
2022/09/28 05:24:07;;;;;;;0.00;0.00;;;13.50;99.90;;;;;;4919255;29;20107;-79
2022/09/28 05:26:33;;;;;;;0.00;0.00;;;13.50;99.90;;;;;;4902092;29;20131;-79
2022/09/28 05:28:59;;;;;;;0.00;0.00;;;13.50;99.90;;;;;;4919076;29;20028;-79
2022/09/28 05:31:26;;;;;;;0.00;0.00;;;13.60;99.90;;;;;;4918001;29;20111;-78
2022/09/28 05:33:52;;;;;;;0.00;0.00;;;13.60;99.90;;;;;;4918673;29;20031;-78
2022/09/28 05:36:18;;;;;;;0.00;0.00;;;13.50;99.90;;;;;;4918516;29;20112;-80
2022/09/28 05:38:45;;;;;;;0.00;0.00;;;13.60;99.90;;;;;;4918523;29;20036;-79
2022/09/28 05:41:11;;;;;;;0.00;0.00;;;13.60;99.90;;;;;;4918857;29;20028;-80
2022/09/28 05:43:37;;;;;;;0.10;0.10;;;13.60;99.90;;;;;;4918693;29;20032;-79
2022/09/28 05:46:04;;;;;;;0.00;0.00;;;13.60;99.90;;;;;;4918726;29;20035;-81
2022/09/28 05:48:30;;;;;;;0.00;0.00;;;13.60;99.90;;;;;;4901751;29;20062;-79
2022/09/28 05:50:59;;;;;;;0.10;0.10;;;13.70;99.90;;;;;;4918483;29;20020;-81
2022/09/28 05:53:25;;;;;;;0.03;0.03;;;13.70;99.90;;;;;;4918469;29;20031;-79
2022/09/28 05:55:51;;;;;;;0.00;0.00;;;13.70;99.90;;;;;;4918191;29;20062;-80
2022/09/28 05:58:16;;;;;;;0.00;0.00;;;13.70;99.90;;;;;;4918110;29;20429;-79
2022/09/28 06:00:42;;;;;;;0.00;0.00;;;13.70;99.90;;;;;;4918405;29;20024;-79
2022/09/28 06:03:12;;;;;;;0.00;0.00;;;13.60;99.90;;;;;;4901539;29;20468;-79
2022/09/28 06:05:38;;;;;;;0.00;0.00;;;13.60;99.90;;;;;;4918234;29;20091;-81
2022/09/28 06:08:07;;;;;;;0.03;0.03;;;13.70;99.90;;;;;;4918592;29;20032;-80
2022/09/28 06:10:33;;;;;;;0.00;0.00;;;13.70;99.90;;;;;;4917880;29;20383;-79
2022/09/28 06:12:59;;;;;;;0.00;0.00;;;13.70;99.90;;;;;;4918341;29;20141;-79
2022/09/28 06:15:28;;;;;;;0.00;0.00;;;13.80;99.90;;;;;;4917112;29;20436;-81
2022/09/28 06:18:00;;;;;;;0.10;0.10;;;13.80;99.90;;;;;;4917121;29;20040;-81
2022/09/28 06:20:29;;;;;;;0.00;0.00;;;13.80;99.90;;;;;;4918303;29;20052;-79
2022/09/28 06:22:55;;;;;;;0.10;0.10;;;13.80;99.90;;;;;;4918321;29;20034;-81
2022/09/28 06:25:22;;;;;;;0.00;0.00;;;13.80;99.90;;;;;;4917625;29;20170;-79
2022/09/28 06:27:57;;;;;;;0.00;0.00;;;13.80;99.90;;;;;;4917492;29;20099;-80
2022/09/28 06:30:25;;;;;;;0.00;0.00;;;13.80;99.90;;;;;;4918111;29;20052;-80
2022/09/28 06:32:56;;;;;;;0.00;0.00;;;13.80;99.90;;;;;;4917759;29;20116;-81
2022/09/28 06:35:24;;;;;;;0.00;0.00;;;13.80;99.90;;;;;;4917738;29;20070;-80
2022/09/28 06:37:50;;;;;;;0.00;0.00;;;13.90;99.90;;;;;;4917640;29;20032;-78
2022/09/28 06:40:17;;;;;;;0.10;0.10;;;13.90;99.90;;;;;;4917761;29;20055;-78
2022/09/28 06:42:42;;;;;;;0.00;0.00;;;13.90;99.90;;;;;;4917271;29;20479;-78
2022/09/28 06:45:09;;;;;;;0.00;0.00;;;13.90;99.90;;;;;;4917873;29;20087;-79
2022/09/28 06:47:36;;;;;;;0.00;0.00;;;13.90;99.90;;;;;;4917939;29;20028;-80
2022/09/28 06:50:09;;;;;;;0.00;0.00;;;13.90;99.90;;;;;;4917478;29;20028;-78
2022/09/28 06:52:35;;;;;;;0.00;0.00;;;14.00;99.90;;;;;;4918077;29;20059;-78
2022/09/28 06:55:01;;;;;;;0.00;0.00;;;14.00;99.90;;;;;;4917753;29;20071;-77
2022/09/28 06:57:27;;;;;;;0.00;0.00;;;14.00;99.90;;;;;;4900460;29;20032;-76
2022/09/28 06:59:52;;;;;;;0.00;0.00;;;14.00;99.90;;;;;;4917495;29;20032;-79
2022/09/28 07:02:18;;;;;;;0.00;0.00;;;14.00;99.90;;;;;;4917516;29;20040;-78
2022/09/28 07:04:44;;;;;;;0.00;0.00;;;14.00;99.90;;;;;;4917537;29;20028;-76
2022/09/28 07:07:11;;;;;;;0.00;0.00;;;14.00;99.90;;;;;;4917186;29;20028;-76
2022/09/28 07:09:37;;;;;;;0.00;0.00;;;14.10;99.90;;;;;;4917679;29;20451;-76
2022/09/28 07:12:03;;;;;;;0.00;0.00;;;14.20;99.90;;;;;;4917812;29;20103;-77
2022/09/28 07:14:33;;;;;;;0.10;0.10;;;14.20;99.90;;;;;;4900334;29;20088;-77
2022/09/28 07:16:58;;;;;;;0.00;0.00;;;14.40;99.90;;;;;;4900279;29;20067;-76
2022/09/28 07:19:24;;;;;;;0.00;0.00;;;14.40;99.90;;;;;;4917167;29;20024;-76
2022/09/28 07:21:53;;;;;;;0.00;0.00;;;14.50;99.90;;;;;;4900330;29;20028;-76
2022/09/28 07:24:19;;;;;;;0.00;0.00;;;14.60;99.90;;;;;;4900033;29;20067;-79
2022/09/28 07:26:45;;;;;;;0.00;0.00;;;14.50;99.90;;;;;;4917396;29;20103;-77
2022/09/28 07:29:12;;;;;;;0.00;0.00;;;14.60;99.90;;;;;;4917300;29;20024;-78
2022/09/28 07:31:38;;;;;;;0.00;0.00;;;14.60;99.90;;;;;;4917269;29;20028;-77
2022/09/28 07:34:04;;;;;;;0.00;0.00;;;14.60;99.90;;;;;;4916995;29;20076;-76
2022/09/28 07:36:33;;;;;;;0.00;0.00;;;14.60;99.90;;;;;;4917082;29;20028;-77
2022/09/28 07:39:00;;;;;;;0.00;0.00;;;14.60;99.90;;;;;;4917088;29;20032;-76
2022/09/28 07:41:32;;;;;;;0.00;0.00;;;14.70;99.90;;;;;;4917212;29;20028;-78
2022/09/28 07:44:05;;;;;;;0.00;0.00;;;14.70;99.90;;;;;;4900431;29;20035;-76
2022/09/28 07:46:35;;;;;;;0.00;0.00;;;14.70;99.90;;;;;;4916958;29;20055;-77
2022/09/28 07:49:04;;;;;;;0.00;0.00;;;14.80;99.90;;;;;;4917085;29;20032;-78
2022/09/28 07:51:31;;;;;;;0.00;0.00;;;14.80;99.90;;;;;;4917334;29;20379;-78
2022/09/28 07:53:56;;;;;;;0.00;0.00;;;14.70;99.90;;;;;;4900126;29;20412;-79
2022/09/28 07:56:22;;;;;;;0.00;0.00;;;14.70;99.90;;;;;;4903514;29;20043;-78
2022/09/28 07:58:48;;;;;;;0.00;0.00;;;14.80;99.90;;;;;;4903803;29;20028;-79
2022/09/28 08:01:15;;;;;;;0.40;0.40;;;14.80;99.90;;;;;;4903613;29;20029;-79
2022/09/28 08:03:46;;;;;;;0.00;0.00;;;15.00;99.90;;;;;;4920462;29;20032;-77
2022/09/28 08:06:15;;;;;;;0.10;0.10;;;15.20;99.90;;;;;;4920309;29;20116;-78
2022/09/28 08:08:43;;;;;;;0.10;0.10;;;15.60;99.90;;;;;;4920760;29;20036;-78
2022/09/28 08:11:13;;;;;;;0.10;0.10;;;16.10;99.90;;;;;;4920043;29;20038;-78
2022/09/28 08:13:39;;;;;;;0.10;0.10;;;16.30;99.90;;;;;;4920223;29;20070;-78
2022/09/28 08:16:08;;;;;;;0.10;0.10;;;16.70;99.90;;;;;;4920008;29;20035;-78
2022/09/28 08:18:35;;;;;;;0.00;0.00;;;16.90;99.90;;;;;;4920331;29;20127;-79
2022/09/28 08:23:47;;;;;;;0.10;0.10;;;17.00;99.90;;;;;;4920102;29;20078;-77
2022/09/28 08:26:12;;;;;;;0.00;0.00;;;17.00;99.90;;;;;;4920266;29;20063;-77
2022/09/28 08:28:38;;;;;;;0.00;0.00;;;17.00;99.90;;;;;;4903241;29;20075;-78
2022/09/28 08:31:06;;;;;;;0.10;0.10;;;17.10;99.90;;;;;;4919884;29;20063;-78
2022/09/28 08:33:32;;;;;;;0.03;0.03;;;17.20;99.90;;;;;;4920452;29;20063;-76
2022/09/28 08:36:00;;;;;;;0.03;0.03;;;17.40;99.90;;;;;;4919937;29;20472;-77
2022/09/28 08:38:28;;;;;;;0.10;0.10;;;17.60;99.90;;;;;;4919895;29;20049;-77
2022/09/28 08:41:11;;;;;;;0.00;0.00;;;17.90;99.90;;;;;;4920041;29;20035;-78
2022/09/28 08:44:22;;;;;;;0.10;0.10;;;18.00;99.90;;;;;;4919780;29;20036;-77
2022/09/28 08:47:00;;;;;;;0.10;0.10;;;17.90;99.90;;;;;;4843361;29;20619;-78
2022/09/28 08:49:37;;;;;;;0.10;0.10;;;17.80;99.90;;;;;;4843061;29;20045;-78
2022/09/28 08:52:19;;;;;;;0.10;0.10;;;17.70;99.90;;;;;;4843108;29;20036;-76
2022/09/28 08:54:45;;;;;;;0.10;0.10;;;17.70;99.90;;;;;;4827586;29;20026;-76
2022/09/28 08:57:17;;;;;;;0.10;0.10;;;17.80;99.90;;;;;;4842534;29;20054;-77
2022/09/28 08:59:54;;;;;;;0.10;0.10;;;17.70;99.90;;;;;;4842703;29;20467;-77
2022/09/28 09:02:27;;;;;;;0.10;0.10;;;17.90;99.90;;;;;;4842862;29;20189;-78
2022/09/28 09:04:54;;;;;;;0.20;0.20;;;17.70;99.90;;;;;;4842532;29;20034;-78
2022/09/28 09:07:50;;;;;;;0.10;0.10;;;17.60;99.90;;;;;;4842559;29;20064;-76
2022/09/28 09:10:27;;;;;;;0.10;0.10;;;17.90;99.90;;;;;;4842733;29;20106;-78
2022/09/28 09:13:11;;;;;;;0.10;0.10;;;18.00;99.90;;;;;;4827332;29;20427;-77
2022/09/28 09:15:53;;;;;;;0.10;0.10;;;18.20;99.90;;;;;;4842739;29;20125;-77
2022/09/28 09:18:37;;;;;;;9.63;4.50;;;18.30;99.90;;;;;;4842271;29;20065;-76
2022/09/28 09:21:47;;;;;;;9.85;5.28;;;18.60;99.90;;;;;;4845085;29;20065;-74
2022/09/28 09:24:20;;;;;;;8.85;4.95;;;18.70;99.90;;;;;;4919456;29;20111;-77
2022/09/28 09:26:51;;;;;;;6.70;4.10;;;18.80;99.90;;;;;;4902135;29;20028;-77
2022/09/28 09:29:39;;;;;;;8.32;3.75;;;18.80;99.90;;;;;;4918544;29;20107;-77
2022/09/28 09:32:19;;;;;;;9.15;5.40;;;18.90;99.90;;;;;;4901977;29;20087;-75
2022/09/28 09:35:12;;;;;;;9.48;4.25;;;19.00;99.90;;;;;;4919199;29;20088;-76
2022/09/28 09:37:56;;;;;;;10.57;4.85;;;19.20;99.90;;;;;;4918600;29;20047;-76
2022/09/28 09:40:27;;;;;;;9.60;4.63;;;19.40;99.90;;;;;;4901739;29;20095;-78
2022/09/28 09:43:31;;;;;;;9.50;4.57;;;19.20;99.90;;;;;;4901979;29;20032;-77
2022/09/28 09:46:22;;;;;;;12.95;5.40;;;19.30;99.90;;;;;;4918710;29;20159;-77
2022/09/28 09:48:50;;;;;;;9.45;5.75;;;19.60;99.90;;;;;;4918505;29;20103;-75
2022/09/28 09:51:24;;;;;;;10.20;5.32;;;19.70;99.90;;;;;;4918911;29;20043;-76
2022/09/28 09:54:00;;;;;;;10.70;5.80;;;19.90;99.90;;;;;;4919016;29;20039;-77
2022/09/28 09:56:33;;;;;;;10.38;4.97;;;19.90;99.90;;;;;;4901195;29;20127;-75
2022/09/28 09:59:07;;;;;;;8.32;5.22;;;20.00;99.90;;;;;;4918490;29;20090;-77
2022/09/28 10:01:38;;;;;;;10.23;6.32;;;20.20;99.90;;;;;;4918328;29;20108;-76
2022/09/28 10:04:16;;;;;;;10.55;5.72;;;20.30;99.90;;;;;;4918853;29;20036;-74
2022/09/28 10:06:43;;;;;;;11.48;6.50;;;;;;;;;;4918360;29;20036;-77
2022/09/28 10:09:40;;;;;;;12.23;7.38;;;20.40;99.90;;;;;;4901227;29;20431;-76
2022/09/28 10:12:10;;;;;;;18.27;11.88;;;20.60;99.90;;;;;;4841357;29;20121;-76
2022/09/28 10:14:36;;;;;;;11.02;6.70;;;20.60;99.90;;;;;;4841634;29;20030;-77
2022/09/28 10:17:03;;;;;;;14.70;7.95;;;20.80;99.90;;;;;;4840327;29;20065;-75
2022/09/28 10:19:34;;;;;;;11.23;6.88;;;;;;;;;;4841400;29;20034;-77
2022/09/28 10:22:04;;;;;;;14.73;9.23;;;21.00;99.90;;;;;;4841510;29;20038;-76
2022/09/28 10:24:59;;;;;;;12.52;7.78;;;;;;;;;;4826008;29;20070;-75
2022/09/28 10:27:29;;;;;;;11.45;6.68;;;;;;;;;;4786765;30;20044;-78
2022/09/28 10:29:57;;;;;;;9.90;7.18;;;;;;;;;;4787096;30;20047;-76
2022/09/28 10:32:25;;;;;;;9.20;6.68;;;;;;;;;;4786963;30;20518;-76
2022/09/28 10:34:52;;;;;;;13.25;7.95;;;;;;;;;;4786659;30;20135;-77
2022/09/28 10:37:19;;;;;;;14.80;8.93;;;;;;;;;;4786405;30;20512;-79
2022/09/28 10:39:52;;;;;;;13.35;8.10;;;;;;;;;;4772034;30;20465;-79
2022/09/28 10:42:26;;;;;;;13.50;8.65;;;;;;;;;;4771680;30;20039;-77
2022/09/28 10:44:55;;;;;;;15.45;8.93;;;;;;;;;;4771481;30;20047;-79
2022/09/28 10:47:22;;;;;;;13.60;8.40;;;;;;;;;;4774347;29;20142;-78
2022/09/28 10:49:50;;;;;;;13.68;8.80;;;;;;;;;;4825727;29;20528;-76
2022/09/28 10:52:35;;;;;;;13.45;9.02;;;;;;;;;;4840905;29;20038;-78
2022/09/28 10:55:03;;;;;;;11.68;9.32;;;;;;;;;;4840829;29;20423;-77
2022/09/28 10:57:34;;;;;;;12.73;8.32;;;;;;;;;;4825435;29;20049;-79
2022/09/28 11:00:01;;;;;;;16.10;8.23;;;;;;;;;;4840907;29;20038;-79
2022/09/28 11:02:27;;;;;;;11.45;7.60;;;;;;;;;;4841160;29;20030;-78
2022/09/28 11:04:58;;;;;;;12.43;7.32;;;;;;;;;;4914260;29;20036;-76
2022/09/28 11:07:32;;;;;;;10.60;7.25;;;;;;;;;;4917922;29;20103;-78
2022/09/28 11:09:59;;;;;;;12.65;6.85;;;;;;;;;;4900525;29;20079;-78
2022/09/28 11:12:44;;;;;;;12.88;7.32;;;;;;;;;;4900407;29;20447;-77
2022/09/28 11:15:16;;;;;;;11.73;9.40;;;;;;;;;;4900804;29;20024;-77
2022/09/28 11:17:43;;;;;;;11.13;8.00;;;;;;;;;;4917424;29;20429;-77
2022/09/28 11:20:24;;;;;;;11.43;8.10;;;;;;;;;;4900327;29;20563;-78
2022/09/28 11:23:01;;;;;;;11.88;8.85;;;;;;;;;;4917104;29;20028;-77
2022/09/28 11:25:29;;;;;;;10.93;7.95;;;;;;;;;;4917227;29;20024;-79
2022/09/28 11:27:55;;;;;;;13.95;8.35;;;;;;;;;;4900446;29;20028;-78
2022/09/28 11:30:26;;;;;;;12.50;8.60;;;;;;;;;;4921361;29;20154;-80
2022/09/28 11:32:54;;;;;;;12.52;9.07;;;;;;;;;;4920577;29;20024;-77
2022/09/28 11:35:23;;;;;;;16.67;9.63;;;;;;;;;;4903903;29;20391;-78
2022/09/28 11:38:01;;;;;;;15.38;10.63;;;;;;;;;;4903950;29;20180;-78
2022/09/28 11:40:27;;;;;;;18.15;12.27;;;;;;;;;;4903697;29;20372;-77
2022/09/28 11:43:12;;;;;;;18.77;12.32;;;;;;;;;;4920999;29;20021;-79
2022/09/28 11:46:04;;;;;;;15.05;10.80;;;;;;;;;;4903905;29;20028;-80
2022/09/28 11:48:40;;;;;;;18.85;12.48;;;;;;;;;;4862401;29;20112;-78
2022/09/28 11:51:12;;;;;;;17.05;12.52;;;;;;;;;;4847121;29;20021;-80
2022/09/28 11:53:45;;;;;;;18.48;12.13;;;;;;;;;;4862375;29;20073;-79
2022/09/28 11:56:25;;;;;;;15.70;12.23;;;;;;;;;;4846823;29;20034;-78
2022/09/28 11:58:53;;;;;;;16.70;13.00;;;;;;;;;;4846668;29;20065;-80
2022/09/28 12:01:38;;;;;;;13.95;11.80;;;;;;;;;;4862057;29;20025;-78
2022/09/28 12:04:22;;;;;;;17.05;11.45;;;;;;;;;;4846638;29;20029;-78
2022/09/28 12:06:51;;;;;;;17.50;13.45;;;;;;;;;;4846691;29;20140;-79
2022/09/28 12:09:21;;;;;;;16.13;13.13;;;;;;;;;;4846459;29;20033;-78
2022/09/28 12:11:51;;;;;;;15.35;13.45;;;;;;;;;;4846578;29;20171;-79
2022/09/28 12:14:22;;;;;;;21.38;14.60;;;;;;;;;;4862106;29;20072;-80
2022/09/28 12:16:55;;;;;;;23.48;15.02;;;;;;;;;;4861691;29;20489;-81
2022/09/28 12:19:24;;;;;;;54.40;28.60;;;;;;;;;;4846358;29;20030;-80
2022/09/28 12:21:55;;;;;;;27.02;17.55;;;;;;;;;;4861691;29;20109;-78
2022/09/28 12:24:30;;;;;;;24.17;18.80;;;;;;;;;;4869165;29;20034;-79
2022/09/28 12:27:04;;;;;;;17.33;13.05;;;;;;;;;;4920091;29;20793;-78
2022/09/28 12:29:39;;;;;;;22.02;16.42;;;;;;;;;;4903036;29;20091;-81
2022/09/28 12:32:18;;;;;;;17.30;13.20;;;;;;;;;;4903460;29;20052;-78
2022/09/28 12:34:44;;;;;;;19.90;14.70;;;;;;;;;;4919836;29;20107;-79
2022/09/28 12:37:13;;;;;;;22.02;17.05;;;;;;;;;;4902803;29;20028;-78
2022/09/28 12:39:42;;;;;;;15.55;13.10;;;;;;;;;;4919639;29;20024;-78
2022/09/28 12:42:13;;;;;;;17.75;13.55;;;;;;;;;;4919690;29;20024;-78
2022/09/28 12:44:43;;;;;;;19.98;15.35;;;;;;;;;;4919736;29;20021;-80
2022/09/28 12:47:30;;;;;;;19.42;14.98;;;;;;;;;;4919497;29;20384;-77
2022/09/28 12:50:02;;;;;;;20.85;16.40;;;;;;;;;;4919685;29;20036;-78
2022/09/28 12:52:36;;;;;;;21.35;15.68;;;;;;;;;;4902797;29;20024;-78
2022/09/28 12:55:21;;;;;;;18.25;13.88;;;;;;;;;;4919776;29;20031;-80
2022/09/28 12:57:58;;;;;;;18.70;13.50;;;;;;;;;;4902396;29;20130;-78
2022/09/28 13:00:29;;;;;;;19.33;13.35;;;;;;;;;;4919585;29;20535;-78
2022/09/28 13:03:09;;;;;;;20.02;14.13;;;;;;;;;;4902690;29;20460;-79
2022/09/28 13:05:43;;;;;;;18.55;14.75;;;;;;;;;;4919450;29;20039;-77
2022/09/28 13:08:28;;;;;;;25.65;17.98;;;;;;;;;;4902819;29;20115;-76
2022/09/28 13:11:04;;;;;;;18.73;13.50;;;;;;;;;;4902287;29;20028;-76
2022/09/28 13:13:33;;;;;;;21.00;15.50;;;;;;;;;;4919806;29;20496;-75
2022/09/28 13:16:28;;;;;;;24.58;15.63;;;;;;;;;;4902135;29;20503;-77
2022/09/28 13:18:58;;;;;;;22.88;15.10;;;;;;;;;;4860390;29;20049;-77
2022/09/28 13:21:25;;;;;;;19.70;16.25;;;;;;;;;;4860837;29;20029;-76
2022/09/28 13:23:54;;;;;;;20.77;15.43;;;;;;;;;;4860844;29;20513;-77
2022/09/28 13:26:26;;;;;;;20.45;14.70;;;;;;;;;;4860697;29;20394;-77
2022/09/28 13:28:54;;;;;;;18.35;14.43;;;;;;;;;;4860439;29;20034;-77
2022/09/28 13:31:22;;;;;;;18.83;14.35;;;;;;;;;;4860275;29;20432;-76
2022/09/28 13:33:49;;;;;;;21.25;15.77;;;;;;;;;;4845218;29;20022;-77
2022/09/28 13:36:27;;;;;;;16.38;14.10;;;;;;;;;;4860407;29;20069;-76
2022/09/28 13:38:58;;;;;;;18.95;14.15;;;;;;;;;;4860427;29;20036;-75